sensor_id;sensor_type;location;lat;lon;timestamp;pressure;altitude;pressure_sealevel;temperature;humidity
70407;BME280;57821;52.202;0.154;2023-01-29T00:01:18;103072.41;;;5.54;83.56
70407;BME280;57821;52.202;0.154;2023-01-29T00:03:45;103068.09;;;5.53;84.35
70407;BME280;57821;52.202;0.154;2023-01-29T00:06:11;103069.03;;;5.55;84.83
70407;BME280;57821;52.202;0.154;2023-01-29T00:08:38;103064.78;;;5.56;84.75
70407;BME280;57821;52.202;0.154;2023-01-29T00:11:06;103056.03;;;5.52;84.85
70407;BME280;57821;52.202;0.154;2023-01-29T00:13:33;103063.09;;;5.56;84.89
70407;BME280;57821;52.202;0.154;2023-01-29T00:16:00;103070.81;;;5.56;84.69
70407;BME280;57821;52.202;0.154;2023-01-29T00:18:27;103066.47;;;5.55;84.17
70407;BME280;57821;52.202;0.154;2023-01-29T00:20:54;103068.09;;;5.53;84.46
70407;BME280;57821;52.202;0.154;2023-01-29T00:23:21;103062.06;;;5.53;85.34
70407;BME280;57821;52.202;0.154;2023-01-29T00:25:48;103068.00;;;5.52;85.32
70407;BME280;57821;52.202;0.154;2023-01-29T00:28:14;103062.84;;;5.52;84.57
70407;BME280;57821;52.202;0.154;2023-01-29T00:30:42;103057.72;;;5.52;84.33
70407;BME280;57821;52.202;0.154;2023-01-29T00:33:08;103054.25;;;5.51;84.82
70407;BME280;57821;52.202;0.154;2023-01-29T00:35:38;103042.97;;;5.49;85.39
70407;BME280;57821;52.202;0.154;2023-01-29T00:38:05;103042.97;;;5.49;84.97
70407;BME280;57821;52.202;0.154;2023-01-29T00:40:31;103031.81;;;5.49;85.21
70407;BME280;57821;52.202;0.154;2023-01-29T00:42:58;103036.94;;;5.49;85.25
70407;BME280;57821;52.202;0.154;2023-01-29T00:45:24;103033.47;;;5.48;85.11
70407;BME280;57821;52.202;0.154;2023-01-29T00:47:51;103032.69;;;5.49;85.94
70407;BME280;57821;52.202;0.154;2023-01-29T00:50:17;103035.25;;;5.49;85.68
70407;BME280;57821;52.202;0.154;2023-01-29T00:52:44;103029.16;;;5.47;85.04
70407;BME280;57821;52.202;0.154;2023-01-29T00:55:11;103036.94;;;5.49;85.82
70407;BME280;57821;52.202;0.154;2023-01-29T00:57:37;103033.56;;;5.50;85.72
70407;BME280;57821;52.202;0.154;2023-01-29T01:00:07;103027.63;;;5.51;85.19
70407;BME280;57821;52.202;0.154;2023-01-29T01:02:34;103019.81;;;5.49;85.73
70407;BME280;57821;52.202;0.154;2023-01-29T01:05:03;103019.91;;;5.51;85.45
70407;BME280;57821;52.202;0.154;2023-01-29T01:07:29;103020.78;;;5.51;86.30
70407;BME280;57821;52.202;0.154;2023-01-29T01:09:56;103019.91;;;5.51;86.40
70407;BME280;57821;52.202;0.154;2023-01-29T01:12:23;103020.78;;;5.51;86.30
70407;BME280;57821;52.202;0.154;2023-01-29T01:14:49;103015.66;;;5.51;86.35
70407;BME280;57821;52.202;0.154;2023-01-29T01:17:16;103015.66;;;5.51;85.91
70407;BME280;57821;52.202;0.154;2023-01-29T01:19:42;103004.47;;;5.51;86.14
70407;BME280;57821;52.202;0.154;2023-01-29T01:22:09;103007.13;;;5.52;86.93
70407;BME280;57821;52.202;0.154;2023-01-29T01:24:36;103013.06;;;5.51;86.23
70407;BME280;57821;52.202;0.154;2023-01-29T01:27:03;103015.75;;;5.53;86.98
70407;BME280;57821;52.202;0.154;2023-01-29T01:29:30;103022.56;;;5.52;87.06
70407;BME280;57821;52.202;0.154;2023-01-29T01:31:57;103020.00;;;5.52;86.58
70407;BME280;57821;52.202;0.154;2023-01-29T01:34:23;103023.47;;;5.53;87.11
70407;BME280;57821;52.202;0.154;2023-01-29T01:36:50;103025.16;;;5.52;86.28
70407;BME280;57821;52.202;0.154;2023-01-29T01:39:16;103016.53;;;5.52;86.94
70407;BME280;57821;52.202;0.154;2023-01-29T01:41:43;103024.34;;;5.53;86.48
70407;BME280;57821;52.202;0.154;2023-01-29T01:47:14;103022.56;;;5.52;87.68
70407;BME280;57821;52.202;0.154;2023-01-29T01:49:43;103020.88;;;5.53;87.32
70407;BME280;57821;52.202;0.154;2023-01-29T01:52:12;103024.34;;;5.53;87.36
70407;BME280;57821;52.202;0.154;2023-01-29T01:54:38;103017.44;;;5.52;87.18
70407;BME280;57821;52.202;0.154;2023-01-29T01:57:09;103017.44;;;5.52;87.86
70407;BME280;57821;52.202;0.154;2023-01-29T01:59:39;103017.47;;;5.54;87.73
70407;BME280;57821;52.202;0.154;2023-01-29T02:02:06;103020.94;;;5.54;87.47
70407;BME280;57821;52.202;0.154;2023-01-29T02:04:33;103023.50;;;5.54;87.22
70407;BME280;57821;52.202;0.154;2023-01-29T02:07:02;103024.34;;;5.53;87.67
70407;BME280;57821;52.202;0.154;2023-01-29T02:09:46;103020.00;;;5.52;87.68
70407;BME280;57821;52.202;0.154;2023-01-29T02:12:15;103020.78;;;5.51;87.64
70407;BME280;57821;52.202;0.154;2023-01-29T02:14:43;103020.78;;;5.51;87.55
70407;BME280;57821;52.202;0.154;2023-01-29T02:17:13;103022.41;;;5.49;88.43
70407;BME280;57821;52.202;0.154;2023-01-29T02:25:38;103015.47;;;5.48;88.53
70407;BME280;57821;52.202;0.154;2023-01-29T02:36:17;103007.53;;;5.44;89.45
70407;BME280;57821;52.202;0.154;2023-01-29T02:41:42;102999.72;;;5.42;88.93
70407;BME280;57821;52.202;0.154;2023-01-29T02:44:26;102995.53;;;5.44;89.88
70407;BME280;57821;52.202;0.154;2023-01-29T02:47:18;102985.91;;;5.40;90.00
70407;BME280;57821;52.202;0.154;2023-01-29T02:49:55;102993.16;;;5.47;89.38
70407;BME280;57821;52.202;0.154;2023-01-29T02:52:57;102988.81;;;5.46;89.04
70407;BME280;57821;52.202;0.154;2023-01-29T02:55:40;102990.63;;;5.49;89.48
70407;BME280;57821;52.202;0.154;2023-01-29T02:58:35;102983.72;;;5.48;89.61
70407;BME280;57821;52.202;0.154;2023-01-29T03:01:09;102977.53;;;5.44;89.60
70407;BME280;57821;52.202;0.154;2023-01-29T03:03:41;102978.75;;;5.51;89.99
70407;BME280;57821;52.202;0.154;2023-01-29T03:06:20;102971.09;;;5.52;88.99
70407;BME280;57821;52.202;0.154;2023-01-29T03:08:58;102965.06;;;5.52;89.71
70407;BME280;57821;52.202;0.154;2023-01-29T03:11:31;102954.59;;;5.49;90.06
70407;BME280;57821;52.202;0.154;2023-01-29T03:14:16;102962.50;;;5.52;89.62
70407;BME280;57821;52.202;0.154;2023-01-29T03:16:52;102966.84;;;5.53;89.64
70407;BME280;57821;52.202;0.154;2023-01-29T03:19:32;102952.13;;;5.50;90.48
70407;BME280;57821;52.202;0.154;2023-01-29T03:22:05;102957.44;;;5.53;89.21
70407;BME280;57821;52.202;0.154;2023-01-29T03:24:52;102959.94;;;5.52;90.33
70407;BME280;57821;52.202;0.154;2023-01-29T03:27:27;102957.34;;;5.52;90.23
70407;BME280;57821;52.202;0.154;2023-01-29T03:29:57;102945.38;;;5.52;90.33
70407;BME280;57821;52.202;0.154;2023-01-29T03:32:34;102942.81;;;5.52;89.27
70407;BME280;57821;52.202;0.154;2023-01-29T03:35:03;102935.09;;;5.52;90.21
70407;BME280;57821;52.202;0.154;2023-01-29T03:37:39;102932.50;;;5.52;90.20
70407;BME280;57821;52.202;0.154;2023-01-29T03:40:08;102929.94;;;5.52;90.46
70407;BME280;57821;52.202;0.154;2023-01-29T03:45:35;102922.84;;;5.48;90.31
70407;BME280;57821;52.202;0.154;2023-01-29T03:50:58;102926.16;;;5.46;90.04
70407;BME280;57821;52.202;0.154;2023-01-29T03:53:42;102931.41;;;5.47;89.28
70407;BME280;57821;52.202;0.154;2023-01-29T03:56:29;102930.41;;;5.45;89.43
70407;BME280;57821;52.202;0.154;2023-01-29T03:59:38;102926.06;;;5.44;90.72
70407;BME280;57821;52.202;0.154;2023-01-29T04:02:32;102924.25;;;5.42;90.14
70407;BME280;57821;52.202;0.154;2023-01-29T04:05:12;102911.88;;;5.34;90.03
70407;BME280;57821;52.202;0.154;2023-01-29T04:07:56;102916.34;;;5.38;89.70
70407;BME280;57821;52.202;0.154;2023-01-29T04:10:26;102904.84;;;5.32;90.21
70407;BME280;57821;52.202;0.154;2023-01-29T04:13:05;102915.38;;;5.36;89.80
70407;BME280;57821;52.202;0.154;2023-01-29T04:15:37;102908.41;;;5.34;89.60
70407;BME280;57821;52.202;0.154;2023-01-29T04:18:06;102910.09;;;5.33;90.06
70407;BME280;57821;52.202;0.154;2023-01-29T04:20:45;102913.47;;;5.32;90.40
70407;BME280;57821;52.202;0.154;2023-01-29T04:23:20;102908.97;;;5.28;90.92
70407;BME280;57821;52.202;0.154;2023-01-29T04:29:19;102901.16;;;5.27;89.91
70407;BME280;57821;52.202;0.154;2023-01-29T04:31:56;102913.22;;;5.28;91.01
70407;BME280;57821;52.202;0.154;2023-01-29T04:34:39;102903.75;;;5.27;90.31
70407;BME280;57821;52.202;0.154;2023-01-29T04:37:35;102902.06;;;5.27;89.85
70407;BME280;57821;52.202;0.154;2023-01-29T04:43:17;102885.41;;;5.21;89.80
70407;BME280;57821;52.202;0.154;2023-01-29T04:46:08;102883.03;;;5.24;89.72
70407;BME280;57821;52.202;0.154;2023-01-29T04:48:48;102877.69;;;5.21;90.96
70407;BME280;57821;52.202;0.154;2023-01-29T04:54:21;102875.03;;;5.19;91.17
70407;BME280;57821;52.202;0.154;2023-01-29T04:59:39;102867.28;;;5.18;90.74
70407;BME280;57821;52.202;0.154;2023-01-29T05:02:08;102859.25;;;5.12;90.14
70407;BME280;57821;52.202;0.154;2023-01-29T05:04:38;102859.38;;;5.15;90.78
70407;BME280;57821;52.202;0.154;2023-01-29T05:07:10;102871.44;;;5.16;90.77
70407;BME280;57821;52.202;0.154;2023-01-29T05:09:38;102860.34;;;5.17;91.38
70407;BME280;57821;52.202;0.154;2023-01-29T05:12:06;102856.00;;;5.16;90.45
70407;BME280;57821;52.202;0.154;2023-01-29T05:14:36;102831.75;;;5.11;90.22
70407;BME280;57821;52.202;0.154;2023-01-29T05:17:10;102824.03;;;5.11;91.08
70407;BME280;57821;52.202;0.154;2023-01-29T05:19:39;102839.59;;;5.14;90.15
70407;BME280;57821;52.202;0.154;2023-01-29T05:22:08;102824.84;;;5.10;90.23
70407;BME280;57821;52.202;0.154;2023-01-29T05:24:37;102821.69;;;5.15;91.10
70407;BME280;57821;52.202;0.154;2023-01-29T05:27:03;102829.41;;;5.15;90.25
70407;BME280;57821;52.202;0.154;2023-01-29T05:29:30;102840.50;;;5.14;90.39
70407;BME280;57821;52.202;0.154;2023-01-29T05:31:56;102833.66;;;5.15;90.96
70407;BME280;57821;52.202;0.154;2023-01-29T05:34:23;102822.50;;;5.14;90.54
70407;BME280;57821;52.202;0.154;2023-01-29T05:36:50;102832.78;;;5.14;90.91
70407;BME280;57821;52.202;0.154;2023-01-29T05:39:16;102825.16;;;5.16;90.25
70407;BME280;57821;52.202;0.154;2023-01-29T05:41:43;102826.94;;;5.17;90.06
70407;BME280;57821;52.202;0.154;2023-01-29T05:44:09;102811.50;;;5.17;90.24
70407;BME280;57821;52.202;0.154;2023-01-29T05:46:37;102802.97;;;5.18;91.04
70407;BME280;57821;52.202;0.154;2023-01-29T05:49:04;102798.63;;;5.17;90.87
70407;BME280;57821;52.202;0.154;2023-01-29T05:51:31;102800.41;;;5.18;90.11
70407;BME280;57821;52.202;0.154;2023-01-29T05:53:57;102807.16;;;5.16;90.14
70407;BME280;57821;52.202;0.154;2023-01-29T05:56:24;102815.75;;;5.16;89.88
70407;BME280;57821;52.202;0.154;2023-01-29T05:58:50;102809.72;;;5.16;89.53
70407;BME280;57821;52.202;0.154;2023-01-29T06:01:19;102791.41;;;5.10;89.63
70407;BME280;57821;52.202;0.154;2023-01-29T06:03:46;102801.13;;;5.15;88.87
70407;BME280;57821;52.202;0.154;2023-01-29T06:06:13;102802.81;;;5.15;89.54
70407;BME280;57821;52.202;0.154;2023-01-29T06:08:40;102787.38;;;5.15;88.57
70407;BME280;57821;52.202;0.154;2023-01-29T06:11:09;102792.22;;;5.09;89.18
70407;BME280;57821;52.202;0.154;2023-01-29T06:13:36;102791.63;;;5.14;88.58
70407;BME280;57821;52.202;0.154;2023-01-29T06:16:07;102804.41;;;5.13;89.03
70407;BME280;57821;52.202;0.154;2023-01-29T06:18:37;102808.75;;;5.14;89.40
70407;BME280;57821;52.202;0.154;2023-01-29T06:21:05;102795.88;;;5.14;89.11
70407;BME280;57821;52.202;0.154;2023-01-29T06:23:32;102795.00;;;5.13;88.28
70407;BME280;57821;52.202;0.154;2023-01-29T06:26:04;102783.69;;;5.10;89.34
70407;BME280;57821;52.202;0.154;2023-01-29T06:28:31;102788.97;;;5.13;88.13
70407;BME280;57821;52.202;0.154;2023-01-29T06:31:00;102792.53;;;5.15;88.27
70407;BME280;57821;52.202;0.154;2023-01-29T06:33:46;102786.41;;;5.13;88.19
70407;BME280;57821;52.202;0.154;2023-01-29T06:36:13;102779.53;;;5.12;88.34
70407;BME280;57821;52.202;0.154;2023-01-29T06:38:39;102786.28;;;5.10;88.80
70407;BME280;57821;52.202;0.154;2023-01-29T06:41:15;102774.06;;;5.06;89.08
70407;BME280;57821;52.202;0.154;2023-01-29T06:43:44;102776.78;;;5.09;88.34
70407;BME280;57821;52.202;0.154;2023-01-29T06:46:10;102784.41;;;5.07;88.38
70407;BME280;57821;52.202;0.154;2023-01-29T06:48:37;102780.94;;;5.07;87.40
70407;BME280;57821;52.202;0.154;2023-01-29T06:51:06;102774.88;;;5.05;88.23
70407;BME280;57821;52.202;0.154;2023-01-29T06:53:35;102768.66;;;5.01;87.32
70407;BME280;57821;52.202;0.154;2023-01-29T06:56:03;102764.28;;;4.99;88.16
70407;BME280;57821;52.202;0.154;2023-01-29T06:58:30;102764.09;;;4.95;88.03
70407;BME280;57821;52.202;0.154;2023-01-29T07:01:07;102757.94;;;4.92;88.32
70407;BME280;57821;52.202;0.154;2023-01-29T07:03:33;102756.97;;;4.90;87.28
70407;BME280;57821;52.202;0.154;2023-01-29T07:06:00;102762.84;;;4.87;87.42
70407;BME280;57821;52.202;0.154;2023-01-29T07:08:27;102762.06;;;4.88;87.29
70407;BME280;57821;52.202;0.154;2023-01-29T07:11:00;102760.28;;;4.87;87.89
70407;BME280;57821;52.202;0.154;2023-01-29T07:13:27;102766.34;;;4.89;88.34
70407;BME280;57821;52.202;0.154;2023-01-29T07:15:57;102762.09;;;4.90;88.71
70407;BME280;57821;52.202;0.154;2023-01-29T07:18:24;102758.66;;;4.89;87.88
70407;BME280;57821;52.202;0.154;2023-01-29T07:20:50;102762.94;;;4.89;87.84
70407;BME280;57821;52.202;0.154;2023-01-29T07:23:17;102753.50;;;4.89;88.24
70407;BME280;57821;52.202;0.154;2023-01-29T07:25:43;102756.03;;;4.88;87.93
70407;BME280;57821;52.202;0.154;2023-01-29T07:28:10;102756.03;;;4.88;87.70
70407;BME280;57821;52.202;0.154;2023-01-29T07:30:36;102753.50;;;4.89;88.42
70407;BME280;57821;52.202;0.154;2023-01-29T07:33:05;102756.91;;;4.88;88.05
70407;BME280;57821;52.202;0.154;2023-01-29T07:35:41;102761.22;;;4.89;87.61
70407;BME280;57821;52.202;0.154;2023-01-29T07:38:09;102741.53;;;4.90;88.48
70407;BME280;57821;52.202;0.154;2023-01-29T07:40:37;102739.84;;;4.90;88.46
70407;BME280;57821;52.202;0.154;2023-01-29T07:43:05;102746.69;;;4.90;87.23
70407;BME280;57821;52.202;0.154;2023-01-29T07:45:34;102744.94;;;4.89;87.57
70407;BME280;57821;52.202;0.154;2023-01-29T07:48:01;102744.84;;;4.87;88.45
70407;BME280;57821;52.202;0.154;2023-01-29T07:50:28;102751.78;;;4.88;88.51
70407;BME280;57821;52.202;0.154;2023-01-29T07:52:55;102750.88;;;4.88;87.90
70407;BME280;57821;52.202;0.154;2023-01-29T07:55:22;102750.94;;;4.89;87.40
70407;BME280;57821;52.202;0.154;2023-01-29T07:58:01;102746.75;;;4.91;87.50
70407;BME280;57821;52.202;0.154;2023-01-29T08:00:29;102738.91;;;4.88;87.94
70407;BME280;57821;52.202;0.154;2023-01-29T08:03:04;102740.81;;;4.92;87.46
70407;BME280;57821;52.202;0.154;2023-01-29T08:05:31;102749.50;;;4.94;88.15
70407;BME280;57821;52.202;0.154;2023-01-29T08:07:57;102740.81;;;4.92;88.64
70407;BME280;57821;52.202;0.154;2023-01-29T08:10:33;102748.84;;;4.99;87.53
70407;BME280;57821;52.202;0.154;2023-01-29T08:13:01;102747.06;;;4.97;88.73
70407;BME280;57821;52.202;0.154;2023-01-29T08:15:28;102738.56;;;4.99;87.78
70407;BME280;57821;52.202;0.154;2023-01-29T08:17:55;102740.34;;;5.00;88.55
70407;BME280;57821;52.202;0.154;2023-01-29T08:20:24;102738.69;;;5.02;87.64
70407;BME280;57821;52.202;0.154;2023-01-29T08:23:05;102730.06;;;5.00;88.49
70407;BME280;57821;52.202;0.154;2023-01-29T08:25:32;102731.97;;;5.04;88.28
70407;BME280;57821;52.202;0.154;2023-01-29T08:28:00;102725.22;;;5.06;88.39
70407;BME280;57821;52.202;0.154;2023-01-29T08:30:28;102717.34;;;5.03;88.05
70407;BME280;57821;52.202;0.154;2023-01-29T08:32:55;102723.66;;;5.09;88.64
70407;BME280;57821;52.202;0.154;2023-01-29T08:35:22;102716.84;;;5.10;87.99
70407;BME280;57821;52.202;0.154;2023-01-29T08:38:08;102716.13;;;5.12;87.90
70407;BME280;57821;52.202;0.154;2023-01-29T08:40:34;102710.22;;;5.15;87.66
70407;BME280;57821;52.202;0.154;2023-01-29T08:43:03;102712.81;;;5.15;88.59
70407;BME280;57821;52.202;0.154;2023-01-29T08:45:34;102713.91;;;5.20;88.05
70407;BME280;57821;52.202;0.154;2023-01-29T08:48:01;102708.84;;;5.21;87.69
70407;BME280;57821;52.202;0.154;2023-01-29T08:50:27;102707.25;;;5.23;88.67
70407;BME280;57821;52.202;0.154;2023-01-29T08:52:58;102718.47;;;5.25;88.41
70407;BME280;57821;52.202;0.154;2023-01-29T08:55:25;102716.94;;;5.29;88.35
70407;BME280;57821;52.202;0.154;2023-01-29T08:57:52;102716.16;;;5.30;87.53
70407;BME280;57821;52.202;0.154;2023-01-29T09:00:19;102706.00;;;5.33;87.88
70407;BME280;57821;52.202;0.154;2023-01-29T09:02:45;102720.75;;;5.37;87.45
70407;BME280;57821;52.202;0.154;2023-01-29T09:05:12;102713.28;;;5.42;87.80
70407;BME280;57821;52.202;0.154;2023-01-29T09:07:38;102716.06;;;5.46;88.48
70407;BME280;57821;52.202;0.154;2023-01-29T09:10:05;102723.19;;;5.52;88.00
70407;BME280;57821;52.202;0.154;2023-01-29T09:12:32;102725.97;;;5.56;87.64
70407;BME280;57821;52.202;0.154;2023-01-29T09:14:59;102721.84;;;5.60;87.78
70407;BME280;57821;52.202;0.154;2023-01-29T09:17:25;102716.78;;;5.61;86.72
70407;BME280;57821;52.202;0.154;2023-01-29T09:19:51;102717.00;;;5.66;87.31
70407;BME280;57821;52.202;0.154;2023-01-29T09:22:19;102711.25;;;5.71;86.77
70407;BME280;57821;52.202;0.154;2023-01-29T09:24:45;102711.41;;;5.74;87.03
70407;BME280;57821;52.202;0.154;2023-01-29T09:27:12;102708.31;;;5.82;86.65
70407;BME280;57821;52.202;0.154;2023-01-29T09:29:38;102711.22;;;5.88;86.85
70407;BME280;57821;52.202;0.154;2023-01-29T09:32:05;102706.34;;;5.94;86.99
70407;BME280;57821;52.202;0.154;2023-01-29T09:34:32;102711.78;;;6.00;86.85
70407;BME280;57821;52.202;0.154;2023-01-29T09:36:59;102706.06;;;6.07;86.48
70407;BME280;57821;52.202;0.154;2023-01-29T09:39:25;102704.59;;;6.12;86.58
70407;BME280;57821;52.202;0.154;2023-01-29T09:42:00;102701.34;;;6.16;86.91
70407;BME280;57821;52.202;0.154;2023-01-29T09:44:44;102700.81;;;6.23;87.18
70407;BME280;57821;52.202;0.154;2023-01-29T09:47:15;102695.09;;;6.30;86.52
70407;BME280;57821;52.202;0.154;2023-01-29T09:49:56;102681.31;;;6.28;86.41
70407;BME280;57821;52.202;0.154;2023-01-29T09:52:34;102689.56;;;6.40;86.59
70407;BME280;57821;52.202;0.154;2023-01-29T09:55:06;102679.66;;;6.49;86.59
70407;BME280;57821;52.202;0.154;2023-01-29T09:57:51;102695.09;;;6.69;86.61
70407;BME280;57821;52.202;0.154;2023-01-29T10:00:50;102685.16;;;6.78;86.14
70407;BME280;57821;52.202;0.154;2023-01-29T10:09:17;102691.91;;;6.95;85.16
70407;BME280;57821;52.202;0.154;2023-01-29T10:25:08;102676.06;;;6.86;85.70
70407;BME280;57821;52.202;0.154;2023-01-29T10:27:39;102665.41;;;6.78;85.89
70407;BME280;57821;52.202;0.154;2023-01-29T10:30:18;102672.34;;;6.79;86.23
70407;BME280;57821;52.202;0.154;2023-01-29T10:32:47;102677.31;;;6.75;85.97
70407;BME280;57821;52.202;0.154;2023-01-29T10:38:11;102665.41;;;6.78;86.21
70407;BME280;57821;52.202;0.154;2023-01-29T10:40:45;102659.53;;;6.81;87.10
70407;BME280;57821;52.202;0.154;2023-01-29T10:49:03;102647.81;;;6.89;86.79
70407;BME280;57821;52.202;0.154;2023-01-29T10:54:41;102640.31;;;6.95;87.54
70407;BME280;57821;52.202;0.154;2023-01-29T11:00:21;102632.22;;;7.07;86.84
70407;BME280;57821;52.202;0.154;2023-01-29T11:02:49;102622.91;;;7.10;87.75
70407;BME280;57821;52.202;0.154;2023-01-29T11:05:24;102622.19;;;7.14;86.97
70407;BME280;57821;52.202;0.154;2023-01-29T11:08:02;102615.41;;;7.16;86.91
70407;BME280;57821;52.202;0.154;2023-01-29T11:10:32;102618.09;;;7.19;87.11
70407;BME280;57821;52.202;0.154;2023-01-29T11:13:03;102603.38;;;7.17;86.79
70407;BME280;57821;52.202;0.154;2023-01-29T11:15:31;102589.66;;;7.18;87.32
70407;BME280;57821;52.202;0.154;2023-01-29T11:18:02;102601.22;;;7.27;87.70
70407;BME280;57821;52.202;0.154;2023-01-29T11:20:31;102593.75;;;7.35;87.42
70407;BME280;57821;52.202;0.154;2023-01-29T11:22:57;102594.06;;;7.42;87.08
70407;BME280;57821;52.202;0.154;2023-01-29T11:25:24;102584.09;;;7.52;86.88
70407;BME280;57821;52.202;0.154;2023-01-29T11:27:55;102573.81;;;7.53;87.06
70407;BME280;57821;52.202;0.154;2023-01-29T11:30:39;102576.94;;;7.67;87.24
70407;BME280;57821;52.202;0.154;2023-01-29T11:33:22;102565.06;;;7.72;86.53
70407;BME280;57821;52.202;0.154;2023-01-29T11:35:49;102557.47;;;7.76;86.60
70407;BME280;57821;52.202;0.154;2023-01-29T11:38:17;102561.75;;;7.76;86.51
70407;BME280;57821;52.202;0.154;2023-01-29T11:40:44;102563.47;;;7.75;86.58
70407;BME280;57821;52.202;0.154;2023-01-29T11:43:40;102559.16;;;7.74;86.30
70407;BME280;57821;52.202;0.154;2023-01-29T11:46:12;102554.59;;;7.69;86.03
70407;BME280;57821;52.202;0.154;2023-01-29T11:48:47;102552.97;;;7.71;86.52
70407;BME280;57821;52.202;0.154;2023-01-29T11:51:26;102557.41;;;7.75;86.95
70407;BME280;57821;52.202;0.154;2023-01-29T11:53:55;102552.25;;;7.75;86.32
70407;BME280;57821;52.202;0.154;2023-01-29T11:56:39;102543.00;;;7.80;86.38
70407;BME280;57821;52.202;0.154;2023-01-29T11:59:38;102534.53;;;7.84;86.71
70407;BME280;57821;52.202;0.154;2023-01-29T12:05:02;102518.44;;;7.93;86.68
70407;BME280;57821;52.202;0.154;2023-01-29T12:07:30;102519.53;;;7.99;86.36
70407;BME280;57821;52.202;0.154;2023-01-29T12:09:58;102503.50;;;8.08;86.50
70407;BME280;57821;52.202;0.154;2023-01-29T12:12:38;102504.78;;;8.20;86.63
70407;BME280;57821;52.202;0.154;2023-01-29T12:15:17;102486.28;;;8.34;85.88
70407;BME280;57821;52.202;0.154;2023-01-29T12:17:49;102477.50;;;8.54;86.67
70407;BME280;57821;52.202;0.154;2023-01-29T12:20:23;102468.94;;;8.83;85.91
70407;BME280;57821;52.202;0.154;2023-01-29T12:23:26;102461.69;;;9.00;85.27
70407;BME280;57821;52.202;0.154;2023-01-29T12:26:00;102458.44;;;9.07;84.10
70407;BME280;57821;52.202;0.154;2023-01-29T12:28:42;102455.06;;;9.10;83.58
70407;BME280;57821;52.202;0.154;2023-01-29T12:31:26;102451.44;;;9.04;83.09
70407;BME280;57821;52.202;0.154;2023-01-29T12:34:21;102438.56;;;9.06;82.91
70407;BME280;57821;52.202;0.154;2023-01-29T12:39:29;102435.94;;;9.04;83.61
70407;BME280;57821;52.202;0.154;2023-01-29T12:42:01;102418.94;;;9.13;82.91
70407;BME280;57821;52.202;0.154;2023-01-29T12:44:37;102419.06;;;9.17;83.00
70407;BME280;57821;52.202;0.154;2023-01-29T12:47:05;102420.34;;;9.33;82.78
70407;BME280;57821;52.202;0.154;2023-01-29T12:49:38;102420.78;;;9.48;82.71
70407;BME280;57821;52.202;0.154;2023-01-29T12:52:13;102415.78;;;9.54;82.20
70407;BME280;57821;52.202;0.154;2023-01-29T12:54:55;102408.84;;;9.53;81.92
70407;BME280;57821;52.202;0.154;2023-01-29T12:57:45;102395.63;;;9.44;81.32
70407;BME280;57821;52.202;0.154;2023-01-29T13:00:19;102390.28;;;9.38;81.72
70407;BME280;57821;52.202;0.154;2023-01-29T13:02:58;102397.19;;;9.37;81.28
70407;BME280;57821;52.202;0.154;2023-01-29T13:05:36;102391.88;;;9.33;81.29
70407;BME280;57821;52.202;0.154;2023-01-29T13:08:38;102377.03;;;9.26;81.80
70407;BME280;57821;52.202;0.154;2023-01-29T13:11:13;102376.09;;;9.24;81.60
70407;BME280;57821;52.202;0.154;2023-01-29T13:13:49;102367.25;;;9.16;81.68
70407;BME280;57821;52.202;0.154;2023-01-29T13:16:24;102363.78;;;9.15;82.43
70407;BME280;57821;52.202;0.154;2023-01-29T13:18:59;102369.00;;;9.17;82.40
70407;BME280;57821;52.202;0.154;2023-01-29T13:21:35;102362.13;;;9.17;82.42
70407;BME280;57821;52.202;0.154;2023-01-29T13:24:04;102358.00;;;9.24;82.11
70407;BME280;57821;52.202;0.154;2023-01-29T13:26:37;102349.56;;;9.31;82.31
70407;BME280;57821;52.202;0.154;2023-01-29T13:29:04;102351.44;;;9.38;81.93
70407;BME280;57821;52.202;0.154;2023-01-29T13:31:33;102354.19;;;9.44;82.21
70407;BME280;57821;52.202;0.154;2023-01-29T13:34:34;102346.69;;;9.53;82.09
70407;BME280;57821;52.202;0.154;2023-01-29T13:36:58;102335.66;;;9.60;81.53
70407;BME280;57821;52.202;0.154;2023-01-29T13:39:29;102340.25;;;9.72;79.81
70407;BME280;57821;52.202;0.154;2023-01-29T13:41:59;102326.59;;;9.77;79.26
70407;BME280;57821;52.202;0.154;2023-01-29T13:44:34;102335.25;;;9.78;77.36
70407;BME280;57821;52.202;0.154;2023-01-29T13:47:08;102328.47;;;9.84;78.50
70407;BME280;57821;52.202;0.154;2023-01-29T13:49:44;102313.81;;;9.85;76.33
70407;BME280;57821;52.202;0.154;2023-01-29T13:52:19;102315.59;;;9.87;77.24
70407;BME280;57821;52.202;0.154;2023-01-29T13:54:57;102309.59;;;9.88;77.34
70407;BME280;57821;52.202;0.154;2023-01-29T13:57:46;102307.00;;;9.88;77.47
70407;BME280;57821;52.202;0.154;2023-01-29T14:02:47;102312.22;;;9.92;77.19
70407;BME280;57821;52.202;0.154;2023-01-29T14:05:43;102302.78;;;9.94;77.30
70407;BME280;57821;52.202;0.154;2023-01-29T14:10:41;102300.41;;;10.03;77.80
70407;BME280;57821;52.202;0.154;2023-01-29T14:15:45;102298.97;;;10.15;76.64
70407;BME280;57821;52.202;0.154;2023-01-29T14:18:20;102292.16;;;10.17;77.01
70407;BME280;57821;52.202;0.154;2023-01-29T14:23:21;102298.44;;;10.28;77.07
70407;BME280;57821;52.202;0.154;2023-01-29T14:25:49;102295.88;;;10.30;76.33
70407;BME280;57821;52.202;0.154;2023-01-29T14:28:21;102288.91;;;10.27;76.33
70407;BME280;57821;52.202;0.154;2023-01-29T14:30:49;102285.44;;;10.27;76.86
70407;BME280;57821;52.202;0.154;2023-01-29T14:33:32;102279.34;;;10.25;77.16
70407;BME280;57821;52.202;0.154;2023-01-29T14:36:04;102284.41;;;10.20;76.27
70407;BME280;57821;52.202;0.154;2023-01-29T14:38:32;102276.47;;;10.14;76.25
70407;BME280;57821;52.202;0.154;2023-01-29T14:41:24;102273.72;;;10.07;77.02
70407;BME280;57821;52.202;0.154;2023-01-29T14:46:57;102273.78;;;10.10;77.48
70407;BME280;57821;52.202;0.154;2023-01-29T14:52:21;102267.41;;;10.33;77.04
70407;BME280;57821;52.202;0.154;2023-01-29T14:54:51;102258.94;;;10.40;76.90
70407;BME280;57821;52.202;0.154;2023-01-29T14:57:19;102258.22;;;10.49;75.97
70407;BME280;57821;52.202;0.154;2023-01-29T14:59:48;102260.81;;;10.49;76.10